Time;durP1;ratioP1;P1;durP2;ratioP2;P2;SDS_P1;SDS_P2;PMS_P1;PMS_P2;Temp;Humidity;BMP_temperature;BMP_pressure;BME280_temperature;BME280_humidity;BME280_pressure;Samples;Min_cycle;Max_cycle;Signal;HPM_P1;HPM_P2
2021/05/02 00:00:10;;;;;;;22.10;17.60;;;6.50;78.10;;;;;;5029909;28;20476;-74
2021/05/02 00:02:36;;;;;;;22.13;17.33;;;6.50;78.30;;;;;;5024124;28;20057;-74
2021/05/02 00:05:04;;;;;;;20.53;17.37;;;6.40;78.30;;;;;;4994540;28;20057;-76
2021/05/02 00:07:30;;;;;;;21.53;16.33;;;6.40;78.40;;;;;;5022300;28;20056;-75
2021/05/02 00:09:58;;;;;;;22.30;16.47;;;6.40;78.40;;;;;;5021769;28;20124;-75
2021/05/02 00:12:25;;;;;;;20.17;15.83;;;6.40;78.50;;;;;;5029576;28;20075;-75
2021/05/02 00:14:51;;;;;;;19.57;15.90;;;6.40;78.70;;;;;;5031501;28;20041;-76
2021/05/02 00:17:17;;;;;;;21.03;15.90;;;6.40;78.60;;;;;;5013887;28;20030;-80
2021/05/02 00:19:44;;;;;;;20.07;16.60;;;6.40;78.60;;;;;;5030128;28;20056;-74
2021/05/02 00:22:11;;;;;;;19.67;16.67;;;6.40;78.70;;;;;;5034212;28;20215;-75
2021/05/02 00:24:38;;;;;;;19.17;15.60;;;6.40;78.90;;;;;;5010070;28;20148;-76
2021/05/02 00:27:04;;;;;;;21.70;16.20;;;6.40;79.00;;;;;;5002831;28;20115;-75
2021/05/02 00:29:31;;;;;;;19.60;15.67;;;6.40;79.20;;;;;;5012372;28;20080;-74
2021/05/02 00:31:58;;;;;;;20.83;15.17;;;6.40;79.20;;;;;;5012805;28;20033;-74
2021/05/02 00:34:27;;;;;;;18.27;15.23;;;6.40;79.20;;;;;;5030708;28;20036;-74
2021/05/02 00:36:52;;;;;;;19.37;16.10;;;6.40;79.40;;;;;;5012626;28;20033;-75
2021/05/02 00:39:18;;;;;;;22.27;16.37;;;6.40;79.30;;;;;;5029678;28;20029;-76
2021/05/02 00:41:47;;;;;;;23.40;15.87;;;6.40;79.20;;;;;;5013080;28;20531;-74
2021/05/02 00:44:44;;;;;;;21.90;16.47;;;6.50;79.30;;;;;;5029603;28;20853;-75
2021/05/02 00:47:17;;;;;;;19.70;15.30;;;6.40;79.20;;;;;;5026277;28;20037;-75
2021/05/02 00:49:52;;;;;;;21.30;15.60;;;6.50;79.30;;;;;;5030465;28;20052;-75
2021/05/02 00:52:43;;;;;;;26.27;16.97;;;6.60;79.20;;;;;;5029937;28;20387;-74
2021/05/02 00:55:13;;;;;;;22.20;17.10;;;6.60;78.90;;;;;;5030426;28;20040;-76
2021/05/02 00:58:00;;;;;;;21.30;17.07;;;6.70;78.60;;;;;;5028661;28;20029;-75
2021/05/02 01:00:29;;;;;;;25.53;17.87;;;6.80;78.40;;;;;;5028942;28;20037;-77
2021/05/02 01:02:59;;;;;;;23.13;18.63;;;6.90;78.50;;;;;;5029759;28;20025;-76
2021/05/02 01:05:28;;;;;;;23.47;17.43;;;7.00;78.20;;;;;;5029545;28;20025;-80
2021/05/02 01:07:59;;;;;;;23.47;17.87;;;7.10;78.30;;;;;;4993016;28;20052;-75
2021/05/02 01:10:27;;;;;;;22.53;17.50;;;7.10;78.10;;;;;;5014682;28;20033;-78
2021/05/02 01:12:55;;;;;;;27.40;19.40;;;7.10;78.10;;;;;;5023093;28;20104;-75
2021/05/02 01:15:31;;;;;;;22.13;17.87;;;7.10;78.00;;;;;;5030772;28;20029;-77
2021/05/02 01:18:01;;;;;;;23.83;18.57;;;7.10;78.10;;;;;;5030029;28;20127;-75
2021/05/02 01:20:32;;;;;;;23.83;18.30;;;7.10;78.30;;;;;;5029799;28;20068;-80
2021/05/02 01:22:59;;;;;;;27.03;19.70;;;7.00;78.40;;;;;;5027698;28;20021;-75
2021/05/02 01:25:25;;;;;;;25.60;19.37;;;6.90;78.60;;;;;;5025672;28;20030;-80
2021/05/02 01:27:53;;;;;;;26.97;20.53;;;6.80;78.80;;;;;;5003621;28;20045;-75
2021/05/02 01:30:21;;;;;;;25.77;20.23;;;6.70;78.90;;;;;;5028530;28;20098;-74
2021/05/02 01:32:46;;;;;;;27.20;20.03;;;6.60;79.30;;;;;;4998724;28;20110;-75
2021/05/02 01:35:12;;;;;;;26.03;19.03;;;6.60;79.60;;;;;;5030511;28;20095;-75
2021/05/02 01:37:38;;;;;;;23.83;18.87;;;6.50;79.70;;;;;;5010924;28;20395;-76
2021/05/02 01:40:04;;;;;;;27.37;20.40;;;6.50;80.10;;;;;;5020259;28;20041;-75
2021/05/02 01:42:30;;;;;;;27.83;20.90;;;6.50;79.90;;;;;;5023357;28;20057;-78
2021/05/02 01:44:56;;;;;;;27.17;21.23;;;6.50;80.10;;;;;;5028725;28;20111;-77
2021/05/02 01:47:24;;;;;;;25.23;19.83;;;6.40;80.20;;;;;;5030219;28;20034;-76
2021/05/02 01:50:10;;;;;;;26.23;20.30;;;6.40;80.30;;;;;;5025350;28;20281;-76
2021/05/02 01:52:43;;;;;;;26.30;20.07;;;6.50;80.50;;;;;;5017133;28;20034;-75
2021/05/02 01:55:09;;;;;;;27.23;21.27;;;6.50;80.60;;;;;;5030130;28;20113;-75
2021/05/02 01:57:35;;;;;;;27.43;20.90;;;6.60;80.50;;;;;;5010741;28;20168;-74
2021/05/02 02:00:08;;;;;;;25.47;20.17;;;6.60;80.50;;;;;;5012417;28;20107;-75
2021/05/02 02:02:34;;;;;;;28.97;21.63;;;6.60;80.40;;;;;;5028030;28;20028;-80
2021/05/02 02:05:02;;;;;;;24.17;19.57;;;6.70;80.30;;;;;;5012552;28;20057;-73
2021/05/02 02:07:29;;;;;;;26.47;20.07;;;6.70;80.20;;;;;;4995338;28;20034;-74
2021/05/02 02:09:55;;;;;;;27.87;21.23;;;6.80;80.10;;;;;;4998546;28;20034;-75
2021/05/02 02:12:21;;;;;;;22.97;19.13;;;6.90;80.10;;;;;;5028468;28;20028;-75
2021/05/02 02:14:50;;;;;;;23.10;18.33;;;7.00;80.10;;;;;;5029668;28;20489;-73
2021/05/02 02:17:18;;;;;;;25.47;19.37;;;7.10;80.10;;;;;;5011850;28;20046;-74
2021/05/02 02:19:45;;;;;;;24.20;19.13;;;7.10;80.10;;;;;;5028414;28;20475;-74
2021/05/02 02:22:12;;;;;;;25.10;19.57;;;7.10;80.00;;;;;;5007246;28;20479;-75
2021/05/02 02:24:45;;;;;;;25.33;19.57;;;7.20;80.00;;;;;;5028170;28;20046;-76
2021/05/02 02:27:11;;;;;;;26.73;20.30;;;7.30;79.90;;;;;;5011979;28;20103;-75
2021/05/02 02:29:44;;;;;;;25.20;19.90;;;7.30;79.80;;;;;;5025828;28;20024;-81
2021/05/02 02:32:12;;;;;;;28.63;20.90;;;7.30;79.70;;;;;;5004382;28;20557;-75
2021/05/02 02:34:50;;;;;;;26.37;18.57;;;7.30;79.80;;;;;;5032022;28;20033;-81
2021/05/02 02:37:21;;;;;;;26.60;19.40;;;7.40;79.70;;;;;;5014979;28;20083;-75
2021/05/02 02:39:59;;;;;;;25.63;18.90;;;7.40;79.60;;;;;;5015264;28;20040;-76
2021/05/02 02:42:25;;;;;;;22.97;18.70;;;7.40;79.60;;;;;;5033036;28;20029;-75
2021/05/02 02:44:55;;;;;;;22.77;18.00;;;7.30;79.80;;;;;;5032920;28;20033;-75
2021/05/02 02:47:32;;;;;;;23.70;18.03;;;7.20;80.00;;;;;;5032897;28;20061;-75
2021/05/02 02:49:59;;;;;;;26.97;19.47;;;7.10;80.10;;;;;;5030421;28;20097;-75
2021/05/02 02:52:27;;;;;;;21.73;16.57;;;7.00;80.40;;;;;;5032922;28;20051;-75
2021/05/02 02:54:59;;;;;;;21.53;16.97;;;6.90;80.50;;;;;;5033086;28;20026;-75
2021/05/02 02:57:27;;;;;;;21.03;16.00;;;6.90;80.70;;;;;;5030637;28;20483;-74
2021/05/02 02:59:56;;;;;;;21.47;17.40;;;6.90;80.80;;;;;;5014211;28;20479;-74
2021/05/02 03:02:25;;;;;;;23.50;17.20;;;6.80;80.80;;;;;;5033018;28;20033;-75
2021/05/02 03:04:53;;;;;;;23.67;16.43;;;6.80;80.90;;;;;;5013716;28;20383;-75
2021/05/02 03:07:22;;;;;;;22.47;17.07;;;6.70;81.00;;;;;;5015387;28;20112;-75
2021/05/02 03:09:49;;;;;;;20.53;16.67;;;6.80;81.20;;;;;;5031127;28;20041;-77
2021/05/02 03:12:21;;;;;;;22.70;16.93;;;6.60;81.20;;;;;;5032008;28;20025;-75
2021/05/02 03:14:53;;;;;;;21.30;16.17;;;6.60;81.50;;;;;;5014917;28;20033;-76
2021/05/02 03:17:22;;;;;;;24.43;16.53;;;6.50;81.70;;;;;;5032655;28;20029;-76
2021/05/02 03:19:58;;;;;;;22.73;16.37;;;6.50;81.80;;;;;;5031025;28;20132;-75
2021/05/02 03:22:39;;;;;;;21.00;16.30;;;6.40;81.70;;;;;;5013599;28;20099;-75
2021/05/02 03:25:09;;;;;;;22.20;16.70;;;6.40;81.90;;;;;;5032612;28;20029;-76
2021/05/02 03:27:40;;;;;;;21.13;16.17;;;6.30;82.20;;;;;;5013870;28;20120;-77
2021/05/02 03:30:10;;;;;;;21.00;15.83;;;6.20;82.20;;;;;;5029859;28;20108;-76
2021/05/02 03:32:43;;;;;;;23.57;17.00;;;6.10;82.30;;;;;;4997545;28;20137;-79
2021/05/02 03:35:10;;;;;;;26.73;17.48;;;6.10;82.50;;;;;;5013008;28;20077;-76
2021/05/02 03:37:38;;;;;;;22.67;15.57;;;6.00;82.60;;;;;;5027023;28;20060;-75
2021/05/02 03:40:05;;;;;;;20.27;15.73;;;5.90;82.70;;;;;;5013390;28;20060;-75
2021/05/02 03:42:33;;;;;;;20.33;14.87;;;5.90;82.80;;;;;;5014189;28;20073;-76
2021/05/02 03:44:58;;;;;;;20.47;15.73;;;5.90;82.90;;;;;;4993388;28;20034;-75
2021/05/02 03:47:24;;;;;;;21.33;16.20;;;5.80;82.80;;;;;;5011751;28;20376;-75
2021/05/02 03:49:50;;;;;;;21.30;15.73;;;5.80;83.00;;;;;;5003812;28;20457;-74
2021/05/02 03:52:16;;;;;;;24.87;16.00;;;5.70;83.10;;;;;;5020760;28;20036;-75
2021/05/02 03:54:42;;;;;;;19.73;15.30;;;5.70;83.10;;;;;;5014150;28;20398;-75
2021/05/02 03:57:08;;;;;;;20.30;15.00;;;5.70;83.20;;;;;;5031481;28;20049;-75
2021/05/02 03:59:34;;;;;;;20.40;15.00;;;5.70;83.30;;;;;;5008179;28;20041;-74
2021/05/02 04:02:03;;;;;;;21.63;14.47;;;5.60;83.30;;;;;;5003960;28;20034;-74
2021/05/02 04:04:37;;;;;;;23.13;16.23;;;5.70;83.30;;;;;;5031303;28;20034;-78
2021/05/02 04:07:10;;;;;;;24.03;16.17;;;5.70;83.10;;;;;;4993954;28;20034;-75
2021/05/02 04:09:36;;;;;;;;;;;5.70;83.30;;;;;;5022545;28;20107;-75
2021/05/02 04:12:03;;;;;;;21.10;14.87;;;5.70;83.20;;;;;;5030436;28;19936;-74
2021/05/02 04:14:29;;;;;;;22.93;15.20;;;5.60;83.10;;;;;;5032172;28;20167;-75
2021/05/02 04:16:55;;;;;;;19.73;14.57;;;5.70;83.20;;;;;;5015432;28;20783;-75
2021/05/02 04:19:21;;;;;;;22.87;16.27;;;5.70;83.10;;;;;;5011672;28;20041;-75
2021/05/02 04:21:47;;;;;;;23.27;16.43;;;5.70;83.40;;;;;;5011700;28;20075;-75
2021/05/02 04:24:13;;;;;;;24.60;16.73;;;5.70;83.00;;;;;;4994214;28;20038;-76
2021/05/02 04:26:44;;;;;;;25.73;16.40;;;5.70;83.30;;;;;;5020411;28;20064;-80
2021/05/02 04:29:10;;;;;;;19.90;15.90;;;5.70;82.90;;;;;;5010725;28;20103;-76
2021/05/02 04:31:36;;;;;;;24.80;15.67;;;5.70;82.90;;;;;;4995656;28;20103;-77
2021/05/02 04:34:03;;;;;;;22.60;15.40;;;5.70;82.90;;;;;;5029342;28;20033;-75
2021/05/02 04:36:29;;;;;;;25.97;15.47;;;5.70;82.80;;;;;;4995960;28;20026;-75
2021/05/02 04:38:55;;;;;;;21.37;15.80;;;5.80;82.80;;;;;;5029336;28;20075;-80
2021/05/02 04:41:21;;;;;;;24.07;16.63;;;5.90;82.60;;;;;;4995268;28;20030;-76
2021/05/02 04:43:46;;;;;;;22.43;15.60;;;5.90;82.30;;;;;;5013469;28;20029;-75
2021/05/02 04:46:12;;;;;;;23.20;15.47;;;6.00;82.10;;;;;;5011838;28;20033;-75
2021/05/02 04:48:42;;;;;;;20.00;14.77;;;6.10;82.30;;;;;;5029389;28;20036;-77
2021/05/02 04:51:09;;;;;;;21.73;14.83;;;6.30;82.20;;;;;;5027779;28;20026;-77
2021/05/02 04:53:35;;;;;;;23.73;16.53;;;6.40;81.80;;;;;;5028963;28;20034;-76
2021/05/02 04:56:01;;;;;;;25.77;15.90;;;6.50;81.50;;;;;;5012046;28;20085;-74
2021/05/02 04:58:26;;;;;;;21.47;15.20;;;6.70;81.10;;;;;;5029545;28;20452;-75
2021/05/02 05:00:52;;;;;;;22.00;15.57;;;6.70;80.70;;;;;;5013263;28;20037;-74
2021/05/02 05:03:18;;;;;;;22.70;15.80;;;6.90;80.40;;;;;;5028987;28;20037;-75
2021/05/02 05:05:44;;;;;;;24.00;16.07;;;7.00;80.10;;;;;;4996146;28;20464;-75
2021/05/02 05:08:10;;;;;;;22.43;17.20;;;7.00;79.70;;;;;;5009433;28;20041;-75
2021/05/02 05:10:36;;;;;;;26.37;17.57;;;7.30;80.20;;;;;;5020221;28;20095;-77
2021/05/02 05:13:02;;;;;;;27.30;16.87;;;7.50;79.10;;;;;;5011138;28;20025;-74
2021/05/02 05:15:28;;;;;;;30.53;20.47;;;7.60;78.50;;;;;;5029223;28;20483;-75
2021/05/02 05:17:54;;;;;;;30.73;20.00;;;7.70;78.30;;;;;;5011362;28;20126;-75
2021/05/02 05:20:20;;;;;;;29.50;19.93;;;7.80;78.10;;;;;;5029647;28;20053;-75
2021/05/02 05:22:45;;;;;;;29.40;19.67;;;8.00;77.50;;;;;;5029827;28;20032;-74
2021/05/02 05:25:11;;;;;;;24.27;18.53;;;8.10;77.00;;;;;;5027988;28;20119;-76
2021/05/02 05:27:37;;;;;;;28.73;19.67;;;8.40;76.40;;;;;;5028118;28;20025;-75
2021/05/02 05:30:04;;;;;;;24.23;16.83;;;8.70;75.90;;;;;;5011372;28;20120;-77
2021/05/02 05:32:29;;;;;;;21.77;16.33;;;9.40;74.00;;;;;;5011345;28;20220;-76
2021/05/02 05:34:55;;;;;;;22.77;17.60;;;9.90;71.60;;;;;;4992853;28;20587;-75
2021/05/02 05:37:21;;;;;;;22.77;15.87;;;11.20;69.70;;;;;;5008928;28;20060;-74
2021/05/02 05:39:48;;;;;;;21.80;15.63;;;12.70;65.10;;;;;;5008815;28;20388;-76
2021/05/02 05:42:13;;;;;;;21.53;16.33;;;14.00;60.40;;;;;;5001214;28;20091;-75
2021/05/02 05:44:39;;;;;;;19.37;14.70;;;14.50;56.40;;;;;;5030676;28;20042;-76
2021/05/02 05:47:05;;;;;;;21.63;14.17;;;14.40;56.00;;;;;;5029147;28;20026;-78
2021/05/02 05:49:31;;;;;;;21.30;15.20;;;13.80;56.50;;;;;;5011825;28;20426;-74
2021/05/02 05:51:57;;;;;;;17.40;13.90;;;13.20;58.60;;;;;;5013186;28;20052;-74
2021/05/02 05:54:23;;;;;;;21.77;13.03;;;13.10;59.80;;;;;;5010109;28;20091;-75
2021/05/02 05:56:49;;;;;;;19.87;11.07;;;13.80;58.60;;;;;;5028728;28;20419;-73
2021/05/02 05:59:16;;;;;;;12.13;10.25;;;14.90;54.80;;;;;;5012199;28;20048;-73
2021/05/02 06:01:42;;;;;;;17.67;13.52;;;15.80;52.30;;;;;;5029864;28;20034;-75
2021/05/02 06:04:08;;;;;;;17.23;10.18;;;16.60;50.10;;;;;;5027917;28;20034;-73
2021/05/02 06:06:38;;;;;;;13.02;9.55;;;17.20;47.80;;;;;;5011300;28;20037;-74
2021/05/02 06:09:06;;;;;;;11.18;9.65;;;18.00;46.00;;;;;;5014576;28;20025;-81
2021/05/02 06:11:32;;;;;;;9.65;7.45;;;18.60;44.20;;;;;;5033611;28;20120;-74
2021/05/02 06:13:58;;;;;;;12.20;10.48;;;19.00;42.80;;;;;;5033774;28;20131;-74
2021/05/02 06:16:25;;;;;;;11.38;9.05;;;19.30;42.90;;;;;;5032854;28;20061;-74
2021/05/02 06:18:55;;;;;;;9.07;8.18;;;19.90;41.60;;;;;;5032744;28;20390;-74
2021/05/02 06:21:22;;;;;;;11.07;6.93;;;20.20;40.80;;;;;;5032321;28;20036;-75
2021/05/02 06:23:48;;;;;;;8.05;5.72;;;20.30;40.00;;;;;;5015564;28;20391;-76
2021/05/02 06:26:15;;;;;;;7.95;6.20;;;20.50;39.40;;;;;;5014653;28;20037;-74
2021/05/02 06:28:42;;;;;;;9.05;6.82;;;20.60;39.10;;;;;;5014909;28;20479;-73
2021/05/02 06:31:08;;;;;;;10.57;7.50;;;20.60;38.80;;;;;;5032807;28;20099;-80
2021/05/02 06:33:38;;;;;;;6.80;5.40;;;20.50;39.30;;;;;;5032578;28;20559;-74
2021/05/02 06:36:04;;;;;;;8.50;5.35;;;20.60;38.40;;;;;;5032919;28;20040;-74
2021/05/02 06:38:30;;;;;;;10.75;7.47;;;20.70;38.00;;;;;;5013196;28;20644;-73
2021/05/02 06:40:56;;;;;;;10.10;8.10;;;20.60;38.40;;;;;;5032992;28;20029;-74
2021/05/02 06:43:22;;;;;;;8.68;5.38;;;20.70;39.40;;;;;;4995454;28;20045;-74
2021/05/02 06:45:48;;;;;;;6.95;4.25;;;21.00;38.30;;;;;;5029247;28;20373;-74
2021/05/02 06:48:14;;;;;;;8.90;4.18;;;20.90;37.60;;;;;;5013571;28;20034;-74
2021/05/02 06:50:39;;;;;;;8.70;4.82;;;21.10;37.30;;;;;;5027987;28;20483;-75
2021/05/02 06:53:05;;;;;;;6.20;3.80;;;21.30;37.30;;;;;;5014933;28;20562;-74
2021/05/02 06:55:31;;;;;;;6.20;4.10;;;21.40;36.50;;;;;;4987594;28;20025;-74
2021/05/02 06:57:59;;;;;;;10.52;6.03;;;21.40;36.60;;;;;;5026604;28;20399;-74
2021/05/02 07:00:25;;;;;;;7.07;3.42;;;21.50;36.80;;;;;;5007157;28;20041;-75
2021/05/02 07:02:51;;;;;;;9.82;4.20;;;21.30;35.80;;;;;;5018499;28;20033;-74
2021/05/02 07:05:17;;;;;;;6.63;4.75;;;20.40;37.60;;;;;;5007352;28;20029;-74
2021/05/02 07:07:43;;;;;;;8.98;4.43;;;20.20;38.10;;;;;;5031875;28;20026;-74
2021/05/02 07:10:09;;;;;;;8.45;4.30;;;19.60;38.00;;;;;;5015108;28;20377;-75
2021/05/02 07:12:34;;;;;;;5.55;3.80;;;18.90;39.50;;;;;;5013609;28;20031;-74
2021/05/02 07:15:00;;;;;;;5.68;2.33;;;18.20;39.80;;;;;;5031890;28;20038;-75
2021/05/02 07:17:26;;;;;;;6.28;2.70;;;17.90;40.90;;;;;;5032027;28;20025;-74
2021/05/02 07:19:52;;;;;;;8.45;2.85;;;17.60;41.30;;;;;;5031059;28;20046;-74
2021/05/02 07:22:19;;;;;;;6.43;2.85;;;17.30;42.00;;;;;;5030851;28;20029;-78
2021/05/02 07:24:48;;;;;;;6.60;3.35;;;16.70;42.30;;;;;;5032700;28;20037;-75
2021/05/02 07:27:13;;;;;;;8.88;2.80;;;16.60;42.70;;;;;;5032445;28;20479;-77
2021/05/02 07:29:39;;;;;;;5.68;2.30;;;16.70;43.20;;;;;;5027494;28;20141;-75
2021/05/02 07:32:05;;;;;;;6.40;2.25;;;17.20;41.80;;;;;;5015512;28;20124;-76
2021/05/02 07:34:30;;;;;;;3.75;2.38;;;17.20;40.70;;;;;;5014114;28;20119;-73
2021/05/02 07:36:56;;;;;;;3.28;1.58;;;16.90;41.70;;;;;;5032091;28;20352;-74
2021/05/02 07:39:23;;;;;;;5.55;2.75;;;17.10;41.70;;;;;;5030769;28;20474;-75
2021/05/02 07:41:49;;;;;;;7.65;3.90;;;17.60;40.10;;;;;;5031424;28;20037;-72
2021/05/02 07:44:14;;;;;;;6.97;3.65;;;18.00;39.70;;;;;;5014460;28;20029;-74
2021/05/02 07:46:40;;;;;;;10.73;4.93;;;17.80;39.90;;;;;;5031001;28;20029;-77
2021/05/02 07:49:06;;;;;;;8.93;4.80;;;17.80;40.10;;;;;;5030222;28;20060;-74
2021/05/02 07:51:32;;;;;;;9.00;4.38;;;17.70;39.50;;;;;;5031651;28;20395;-73
2021/05/02 07:53:58;;;;;;;7.90;4.85;;;17.30;40.10;;;;;;5028350;28;20056;-75
2021/05/02 07:56:24;;;;;;;10.88;6.35;;;17.00;40.60;;;;;;4993722;28;20495;-74
2021/05/02 07:58:50;;;;;;;9.48;6.22;;;17.10;40.50;;;;;;5010089;28;20029;-73
2021/05/02 08:01:16;;;;;;;10.23;5.88;;;17.20;39.70;;;;;;5014684;28;20119;-74
2021/05/02 08:03:42;;;;;;;9.35;5.45;;;17.30;40.10;;;;;;5030359;28;20026;-75
2021/05/02 08:06:08;;;;;;;14.65;9.43;;;17.80;39.50;;;;;;5014629;28;20033;-73
2021/05/02 08:08:33;;;;;;;13.70;9.38;;;18.10;40.10;;;;;;5013006;28;20041;-74
2021/05/02 08:10:59;;;;;;;11.27;7.95;;;19.00;39.00;;;;;;5030238;28;20468;-76
2021/05/02 08:13:25;;;;;;;15.45;11.52;;;19.90;37.40;;;;;;5012695;28;20040;-80
2021/05/02 08:15:50;;;;;;;18.98;11.93;;;20.10;36.30;;;;;;5012747;28;20181;-75
2021/05/02 08:18:16;;;;;;;10.43;6.55;;;19.40;36.30;;;;;;5013288;28;20042;-75
2021/05/02 08:20:43;;;;;;;9.02;5.07;;;18.80;36.80;;;;;;5005827;28;20034;-76
2021/05/02 08:23:10;;;;;;;13.07;7.93;;;18.80;36.50;;;;;;5022742;28;20025;-75
2021/05/02 08:25:36;;;;;;;6.53;4.45;;;19.40;37.10;;;;;;5028500;28;20041;-75
2021/05/02 08:28:02;;;;;;;8.00;3.20;;;20.00;35.60;;;;;;5030104;28;20069;-73
2021/05/02 08:30:28;;;;;;;4.88;2.70;;;20.50;34.00;;;;;;5025265;28;20034;-79
2021/05/02 08:32:54;;;;;;;6.85;2.60;;;20.80;34.10;;;;;;5029603;28;20494;-73
2021/05/02 08:35:19;;;;;;;6.32;2.97;;;21.00;33.50;;;;;;5030175;28;20103;-75
2021/05/02 08:37:45;;;;;;;5.00;2.63;;;20.60;34.20;;;;;;5029030;28;20282;-74
2021/05/02 08:40:12;;;;;;;6.97;1.75;;;20.00;34.50;;;;;;5009129;28;20037;-75
2021/05/02 08:42:38;;;;;;;5.72;2.28;;;19.40;35.20;;;;;;5016127;28;20072;-75
2021/05/02 08:45:04;;;;;;;5.30;2.15;;;19.10;36.10;;;;;;5013059;28;20021;-75
2021/05/02 08:47:35;;;;;;;5.88;1.20;;;18.70;36.20;;;;;;5009550;28;20734;-78
2021/05/02 08:50:05;;;;;;;5.50;1.52;;;18.10;36.50;;;;;;5014168;28;20463;-74
2021/05/02 08:52:31;;;;;;;4.07;1.40;;;17.20;37.50;;;;;;5029671;28;20036;-76
2021/05/02 08:54:57;;;;;;;5.28;1.20;;;17.30;38.20;;;;;;4992351;28;20037;-74
2021/05/02 08:57:22;;;;;;;4.32;0.80;;;17.90;37.30;;;;;;5028717;28;20137;-76
2021/05/02 08:59:48;;;;;;;2.58;0.60;;;18.90;35.40;;;;;;5025165;28;20030;-74
2021/05/02 09:02:25;;;;;;;3.67;0.98;;;19.90;33.20;;;;;;5018637;28;20037;-73
2021/05/02 09:04:56;;;;;;;3.30;0.85;;;20.00;33.00;;;;;;5028175;28;20020;-73
2021/05/02 09:07:22;;;;;;;4.78;0.90;;;19.60;33.60;;;;;;5029578;28;20071;-74
2021/05/02 09:09:48;;;;;;;3.67;1.20;;;18.90;34.80;;;;;;5012147;28;20030;-76
2021/05/02 09:12:22;;;;;;;2.95;1.05;;;18.20;36.10;;;;;;5028654;28;20401;-74
2021/05/02 09:14:49;;;;;;;7.30;2.42;;;17.50;36.60;;;;;;5029843;28;20028;-74
2021/05/02 09:17:26;;;;;;;5.82;1.70;;;16.90;37.90;;;;;;5028206;28;20033;-73
2021/05/02 09:19:52;;;;;;;3.45;1.52;;;16.70;38.30;;;;;;5011891;28;20084;-74
2021/05/02 09:22:19;;;;;;;2.78;1.10;;;17.40;38.70;;;;;;5010615;28;20033;-73
2021/05/02 09:25:11;;;;;;;3.50;0.80;;;18.10;36.90;;;;;;5028282;28;20084;-74
2021/05/02 09:27:50;;;;;;;3.33;0.70;;;18.60;35.90;;;;;;4980429;28;20099;-74
2021/05/02 09:30:18;;;;;;;2.55;0.93;;;18.60;35.60;;;;;;5030416;28;20171;-75
2021/05/02 09:32:45;;;;;;;3.65;0.60;;;18.10;35.80;;;;;;4991630;28;20081;-73
2021/05/02 09:35:49;;;;;;;2.10;0.70;;;17.40;36.30;;;;;;5029340;28;20061;-73
2021/05/02 09:38:17;;;;;;;3.25;0.90;;;16.80;37.20;;;;;;4996946;28;20044;-73
2021/05/02 09:40:54;;;;;;;1.88;0.68;;;16.20;38.60;;;;;;5029674;28;20391;-73
2021/05/02 09:43:36;;;;;;;2.92;0.90;;;16.00;39.10;;;;;;5014288;28;20030;-73
2021/05/02 09:46:24;;;;;;;3.88;0.68;;;15.90;39.90;;;;;;5011802;28;20045;-74
2021/05/02 09:49:12;;;;;;;3.00;0.70;;;15.80;39.70;;;;;;5030647;28;20072;-73
2021/05/02 09:51:50;;;;;;;2.55;0.70;;;15.60;39.60;;;;;;5034016;28;20033;-78
2021/05/02 09:54:17;;;;;;;3.83;0.80;;;15.30;39.80;;;;;;5015283;28;20498;-73
2021/05/02 09:56:46;;;;;;;1.98;0.50;;;15.60;41.10;;;;;;5017791;28;20046;-74
2021/05/02 09:59:34;;;;;;;2.97;0.70;;;16.40;39.60;;;;;;5029394;28;20382;-73
2021/05/02 10:02:12;;;;;;;2.63;0.55;;;17.20;37.70;;;;;;5015300;28;20029;-73
2021/05/02 10:04:45;;;;;;;3.72;0.50;;;17.40;36.20;;;;;;5015186;28;20065;-77
2021/05/02 10:07:14;;;;;;;;;;;17.40;36.30;;;;;;5016561;28;20033;-74
2021/05/02 10:09:41;;;;;;;2.47;0.57;;;17.30;35.70;;;;;;5033214;28;19924;-77
2021/05/02 10:12:12;;;;;;;1.95;0.45;;;17.10;35.90;;;;;;5015220;28;20022;-74
2021/05/02 10:14:38;;;;;;;3.38;0.45;;;17.30;35.80;;;;;;5032453;28;20021;-74
2021/05/02 10:17:05;;;;;;;2.65;0.43;;;18.00;35.70;;;;;;5033076;28;20044;-73
2021/05/02 10:19:32;;;;;;;2.20;0.50;;;18.50;33.80;;;;;;5012079;28;20111;-75
2021/05/02 10:21:57;;;;;;;1.15;0.50;;;18.50;33.60;;;;;;5013859;28;20045;-75
2021/05/02 10:24:23;;;;;;;4.05;0.60;;;18.30;33.50;;;;;;5008866;28;20037;-75
2021/05/02 10:26:51;;;;;;;4.50;0.60;;;17.90;34.20;;;;;;5002496;28;20045;-75
2021/05/02 10:29:30;;;;;;;5.15;1.90;;;17.50;34.90;;;;;;5027579;28;20041;-75
2021/05/02 10:32:06;;;;;;;5.07;1.05;;;17.10;36.70;;;;;;5014122;28;20467;-75
2021/05/02 10:34:36;;;;;;;6.88;2.67;;;16.70;36.70;;;;;;5015379;28;20025;-75
2021/05/02 10:37:24;;;;;;;5.13;2.30;;;16.40;37.80;;;;;;5031298;28;20040;-74
2021/05/02 10:40:07;;;;;;;4.10;1.55;;;16.10;38.30;;;;;;5032648;28;20080;-74
2021/05/02 10:42:46;;;;;;;9.20;4.55;;;15.80;38.70;;;;;;5033261;28;20112;-74
2021/05/02 10:45:30;;;;;;;3.58;2.88;;;15.50;40.10;;;;;;5015245;28;20112;-74
2021/05/02 10:47:57;;;;;;;3.35;1.52;;;15.40;40.00;;;;;;5029572;28;20464;-74
2021/05/02 10:50:34;;;;;;;4.97;1.67;;;15.40;39.50;;;;;;4998915;28;20034;-74
2021/05/02 10:53:08;;;;;;;3.35;1.20;;;15.30;39.30;;;;;;5027218;28;20040;-74
2021/05/02 10:56:06;;;;;;;2.53;1.33;;;15.20;39.60;;;;;;5012249;28;20476;-75
2021/05/02 10:58:40;;;;;;;4.20;1.30;;;15.60;40.80;;;;;;5031892;28;20064;-74
2021/05/02 11:01:10;;;;;;;6.05;2.45;;;16.40;39.70;;;;;;5014568;28;20021;-74
2021/05/02 11:03:38;;;;;;;6.13;3.63;;;16.80;39.00;;;;;;5011853;28;20036;-75
2021/05/02 11:06:12;;;;;;;4.78;2.60;;;17.20;38.60;;;;;;5014352;28;20030;-74
2021/05/02 11:09:01;;;;;;;2.13;1.30;;;17.40;38.30;;;;;;5030795;28;20033;-74
2021/05/02 11:11:30;;;;;;;3.78;1.48;;;17.30;36.80;;;;;;5025963;28;20025;-74
2021/05/02 11:14:08;;;;;;;2.50;1.00;;;17.10;36.60;;;;;;5030733;28;20036;-74
2021/05/02 11:16:45;;;;;;;5.07;1.80;;;16.70;36.40;;;;;;5014534;28;20029;-73
2021/05/02 11:19:33;;;;;;;3.45;1.73;;;16.40;37.90;;;;;;5025181;28;20072;-74
2021/05/02 11:22:06;;;;;;;2.13;0.90;;;16.10;38.30;;;;;;5012738;28;20037;-74
2021/05/02 11:24:45;;;;;;;3.97;1.55;;;15.90;38.20;;;;;;5011312;28;20490;-73
2021/05/02 11:32:28;;;;;;;3.05;0.90;;;15.50;39.40;;;;;;5031572;28;20091;-74
2021/05/02 11:34:55;;;;;;;2.67;1.13;;;15.50;39.30;;;;;;5030871;28;20052;-74
2021/05/02 11:37:45;;;;;;;3.92;0.77;;;15.70;39.40;;;;;;5031630;28;20083;-75
2021/05/02 11:40:32;;;;;;;2.40;0.70;;;15.80;38.20;;;;;;5031340;28;20195;-74
2021/05/02 11:42:59;;;;;;;1.95;0.85;;;15.90;38.80;;;;;;5031538;28;20084;-73
2021/05/02 11:45:44;;;;;;;2.25;0.90;;;15.90;37.30;;;;;;5031550;28;20850;-75
2021/05/02 11:48:20;;;;;;;4.07;0.90;;;16.10;38.10;;;;;;5031237;28;20037;-73
2021/05/02 11:50:47;;;;;;;2.28;0.60;;;16.30;37.50;;;;;;5031454;28;20081;-75
2021/05/02 11:53:13;;;;;;;4.95;0.70;;;16.40;37.00;;;;;;5028269;28;20028;-74
2021/05/02 11:55:42;;;;;;;1.95;0.90;;;16.40;37.00;;;;;;4998121;28;20044;-74
2021/05/02 11:58:10;;;;;;;7.10;1.20;;;16.40;37.40;;;;;;4994943;28;20061;-73
2021/05/02 12:00:36;;;;;;;3.05;1.17;;;16.40;37.70;;;;;;5029866;28;20040;-76
2021/05/02 12:03:03;;;;;;;3.45;1.10;;;16.50;38.60;;;;;;5006588;28;20037;-75
2021/05/02 12:05:29;;;;;;;3.35;0.80;;;16.60;38.30;;;;;;5026436;28;20052;-75
2021/05/02 12:08:11;;;;;;;3.45;0.65;;;16.50;37.70;;;;;;4992590;28;20518;-77
2021/05/02 12:10:38;;;;;;;2.45;0.60;;;16.60;37.90;;;;;;5017444;28;20381;-75
2021/05/02 12:13:05;;;;;;;2.30;0.60;;;16.60;36.60;;;;;;5002073;28;20191;-75
2021/05/02 12:15:34;;;;;;;2.28;0.70;;;16.50;37.10;;;;;;4996655;28;20034;-74
2021/05/02 12:18:00;;;;;;;2.42;0.68;;;16.70;36.90;;;;;;4993250;28;20029;-75
2021/05/02 12:20:28;;;;;;;2.83;0.75;;;16.80;36.50;;;;;;5016316;28;20536;-75
2021/05/02 12:22:54;;;;;;;2.72;0.70;;;16.90;36.80;;;;;;5012443;28;20041;-79
2021/05/02 12:25:20;;;;;;;3.38;0.70;;;17.00;36.50;;;;;;5030297;28;20029;-76
2021/05/02 12:27:59;;;;;;;2.10;0.57;;;17.10;36.90;;;;;;5021320;28;20423;-75
2021/05/02 12:30:26;;;;;;;4.15;0.70;;;17.30;36.20;;;;;;5025510;28;20037;-75
2021/05/02 12:32:55;;;;;;;1.42;0.50;;;17.60;35.30;;;;;;4999488;28;20021;-75
2021/05/02 12:35:21;;;;;;;4.57;0.98;;;17.70;35.00;;;;;;5031196;28;20127;-75
2021/05/02 12:37:47;;;;;;;2.53;0.70;;;17.90;35.50;;;;;;5030108;28;20029;-75
2021/05/02 12:40:13;;;;;;;2.72;0.90;;;17.90;34.40;;;;;;5030317;28;20364;-74
2021/05/02 12:42:40;;;;;;;3.13;1.25;;;18.00;34.40;;;;;;5013241;28;20475;-74
2021/05/02 12:45:08;;;;;;;4.18;1.00;;;17.80;33.70;;;;;;4979062;28;20121;-74
2021/05/02 12:48:00;;;;;;;4.72;0.90;;;17.50;33.60;;;;;;4994415;28;20494;-73
2021/05/02 12:50:39;;;;;;;2.83;0.80;;;17.30;34.10;;;;;;4991371;28;20049;-75
2021/05/02 12:53:04;;;;;;;1.83;0.95;;;17.20;34.50;;;;;;5038184;28;20036;-73
2021/05/02 12:55:33;;;;;;;5.82;1.48;;;17.20;34.60;;;;;;4997572;28;20037;-74